Spencer, MA

2:59 PM EDT on June 03, 2015 (GMT -0400)
Westover Air Reserve Base / Metropolitan Airport | | Change Station
CLOSE
Current Station
Airport
Location: Chicopee,
Elevation: 246 ft
Nearby Weather Stations

Elev 246 ft 42.19 °N, 72.53 °W | Updated 1 minute ago

Partly Cloudy
Partly Cloudy
68 °F
Feels Like 68 °F
N
2
Wind Variable Wind from Variable

Today
High -- | Low -- °F
--% Chance of Precip.
Yesterday
High -- | Low -- °F
Precip. -- in
5:13 AM 8:19 PM
Full, 99% visible
Pressure 30.21 in
Visibility 10.0 miles
Clouds Clear
Dew Point 44 °F
Humidity 43%
Rainfall 0.00 in
Snow Depth Not available.
UV 9 out of 12
Pollen 7.90 out of 12
Air Quality Not available.
Flu Activity Local Activity
METAR KCEF 031858Z AUTO VRB02KT 10SM CLR 20/07 A3019 RMK AO2 SLP230 T01970066

More Conditions Fewer Conditions

Pressure 30.21 in
Visibility 10.0 miles
Clouds Clear
Dew Point 44 °F
Humidity 43%
Rainfall 0.00 in
Snow Depth Not available.
UV 9 out of 12
Pollen 7.90 out of 12
Air Quality Not available.
Flu Activity Local Activity
METAR KCEF 031858Z AUTO VRB02KT 10SM CLR 20/07 A3019 RMK AO2 SLP230 T01970066

More Conditions Fewer Conditions

10-Day Weather Forecast

×

Almanac

Astronomy

Jun. 03, 2015 Rise Set
Actual Time
Civil Twilight
Nautical Twilight
Astronomical Twilight
Moon
Length of Visible Light
Length of Day
Tomorrow will be .
, % of the Moon is Illuminated

Today's Extremes

State Highs State Lows

Community

WunderPhotos

Upload Photos

1,826,270 photos uploaded!

WunderBlogs® & News

Nearby

Air Quality

  Air Quality AQ Index Pollutant
Not available.

Snow Depth

Station Depth Elevation

Earthquake Activity

City Distance Mag. Time & Date
Minimum magnitude displayed is 2.5.

Coastal Water Temperatures

Place Temperature

Stations

Nearby Weather Stations

Station Location Temp. Windchill Dew Point Humidity Wind Precip. Elev Updated Type